KLDM

Mason County Airport

Ludington, Michigan, USA
METAR KLDM 151915Z AUTO 29011G19KT 10SM OVC028 M04/M11 A2979 RMK AO2 T10451108
Observed Flight Rules
Dec-15 @ 19:15 UTC (33 minutes ago) Marginal Visual Flight Rules
Wind Visibility Clouds
290° at 11 knots
 Gusting to 19 knots
10 miles
  • Overcast at 2,800' AGL
Temperatures Readings
Current -5°C / 23°F
Dewpoint -11°C / 12°F
Humidity 63%
Altimeter 29.79" Hg
Pressure 1009 hPa
Elevation 197
METAR KLDM 151915Z AUTO 29011G19KT 10SM OVC028 M04/M11 A2979 RMK AO2 T10451108
Observed Flight Rules
Dec-15 @ 19:15 UTC
(33 minutes ago)
MVFR
Wind Visibility
290° at 11 knots
 Gusting to 19 knots
10 miles
Clouds
  • Overcast at 2,800' AGL
Temperature Dewpoint
-5°C / 23°F -11°C / 12°F
Humidity Altimeter Pressure
63% 29.79" Hg 1009 hPa